Marche, Arkansas
Current Conditions -  °F | °C
As of 3:53 PM on Wednesday 28 Jan 2015 (Local Time) from KLIT Reporting Station
Broken Clouds Broken Clouds  
Wind Chill: 63°   Ceiling: 25000
Heat Index: 63°   Visibility: 10mi
Dew Point: 38°   Wind: 10mph
Humidity: 40%   Direction: 120°ESE
Pressure: 30.08"   Gusts: NA
Location:  34.757°N, 92.1411°W
Report Text: KLIT 282153Z 12009KT 10SM BKN250 17/03 A3008 RMK AO2 SLP189 T01720033
Loading
Personal Weather Stations






























Interactive Weather Map New forecast layout! Learn more

10-Day Weather Forecast

Advertisements
Track Severe Weather on mobile